createdAt,value
2017-12-29T00:13:43.798Z,3.00
2017-12-29T00:16:12.112Z,2.27
2017-12-29T00:18:39.616Z,2.87
2017-12-29T00:21:07.137Z,2.07
2017-12-29T00:23:34.636Z,2.10
2017-12-29T00:26:02.149Z,2.67
2017-12-29T00:28:29.675Z,2.30
2017-12-29T00:30:57.950Z,2.40
2017-12-29T00:33:26.232Z,2.33
2017-12-29T00:35:54.470Z,2.33
2017-12-29T00:38:22.008Z,2.60
2017-12-29T00:40:49.513Z,2.83
2017-12-29T00:43:17.818Z,3.03
2017-12-29T00:45:46.043Z,3.10
2017-12-29T00:48:13.551Z,3.20
2017-12-29T00:50:41.039Z,3.00
2017-12-29T00:53:08.583Z,2.90
2017-12-29T00:55:36.073Z,3.40
2017-12-29T00:58:05.102Z,3.20
2017-12-29T01:00:33.334Z,2.73
2017-12-29T01:03:00.825Z,3.33
2017-12-29T01:05:29.064Z,2.47
2017-12-29T01:07:56.540Z,2.53
2017-12-29T01:10:24.012Z,2.50
2017-12-29T01:12:53.094Z,2.93
2017-12-29T01:15:20.659Z,2.77
2017-12-29T01:17:48.471Z,3.17
2017-12-29T01:20:15.953Z,2.30
2017-12-29T01:22:43.417Z,3.20
2017-12-29T01:25:10.895Z,2.35
2017-12-29T01:27:39.137Z,2.60
2017-12-29T01:30:06.615Z,2.40
2017-12-29T01:32:34.089Z,2.50
2017-12-29T01:35:01.558Z,2.80
2017-12-29T01:37:29.823Z,2.10
2017-12-29T01:39:58.051Z,2.80
2017-12-29T01:42:25.508Z,3.53
2017-12-29T01:44:53.008Z,2.20
2017-12-29T01:47:20.466Z,2.30
2017-12-29T01:49:47.951Z,2.47
2017-12-29T01:52:16.182Z,2.30
2017-12-29T01:54:43.651Z,3.47
2017-12-29T01:57:11.116Z,2.60
2017-12-29T01:59:38.595Z,2.80
2017-12-29T02:02:06.814Z,2.50
2017-12-29T02:04:34.275Z,2.43
2017-12-29T02:07:01.736Z,2.80
2017-12-29T02:09:29.227Z,2.60
2017-12-29T02:11:57.462Z,2.77
2017-12-29T02:14:24.930Z,2.70
2017-12-29T02:16:52.398Z,2.43
2017-12-29T02:19:19.875Z,2.80
2017-12-29T02:21:47.337Z,3.10
2017-12-29T02:24:16.367Z,3.00
2017-12-29T02:26:43.858Z,2.60
2017-12-29T02:29:11.345Z,2.93
2017-12-29T02:31:39.587Z,3.03
2017-12-29T02:34:07.068Z,3.03
2017-12-29T02:36:34.563Z,2.90
2017-12-29T02:39:02.043Z,3.00
2017-12-29T02:41:29.519Z,2.73
2017-12-29T02:43:56.999Z,3.03
2017-12-29T02:46:24.473Z,2.83
2017-12-29T02:48:52.710Z,3.77
2017-12-29T02:51:20.189Z,2.97
2017-12-29T02:53:47.740Z,3.60
2017-12-29T02:56:15.237Z,3.10
2017-12-29T02:58:43.468Z,3.73
2017-12-29T03:01:10.951Z,3.27
2017-12-29T03:03:39.185Z,3.27
2017-12-29T03:06:06.668Z,3.00
2017-12-29T03:08:34.140Z,3.33
2017-12-29T03:11:01.615Z,3.53
2017-12-29T03:13:29.863Z,3.30
2017-12-29T03:15:57.335Z,3.10
2017-12-29T03:18:25.578Z,3.63
2017-12-29T03:20:53.055Z,3.27
2017-12-29T03:23:20.523Z,2.83
2017-12-29T03:25:48.800Z,3.35
2017-12-29T03:28:16.263Z,3.20
2017-12-29T03:30:43.741Z,2.90
2017-12-29T03:33:11.219Z,3.77
2017-12-29T03:35:40.381Z,3.60
2017-12-29T03:38:08.618Z,3.13
2017-12-29T03:40:36.114Z,3.03
2017-12-29T03:43:04.359Z,2.97
2017-12-29T03:45:31.836Z,3.07
2017-12-29T03:48:00.078Z,3.00
2017-12-29T03:50:27.554Z,3.30
2017-12-29T03:52:55.027Z,3.50
2017-12-29T03:55:22.506Z,3.03
2017-12-29T03:57:50.852Z,3.00
2017-12-29T04:00:18.327Z,2.30
2017-12-29T04:02:46.567Z,3.10
2017-12-29T04:05:14.056Z,3.07
2017-12-29T04:07:42.297Z,3.20
2017-12-29T04:10:09.764Z,3.17
2017-12-29T04:12:37.248Z,3.60
2017-12-29T04:15:05.495Z,2.77
2017-12-29T04:17:32.978Z,3.10
2017-12-29T04:20:01.218Z,3.13
2017-12-29T04:22:28.701Z,2.67
2017-12-29T04:24:56.154Z,2.87
2017-12-29T04:27:23.651Z,4.60
2017-12-29T04:29:51.125Z,3.30
2017-12-29T04:32:18.627Z,2.80
2017-12-29T04:34:46.094Z,3.47
2017-12-29T04:37:13.583Z,3.07
2017-12-29T04:39:41.048Z,3.10
2017-12-29T04:42:08.508Z,2.83
2017-12-29T04:44:35.984Z,2.97
2017-12-29T04:47:03.464Z,3.00
2017-12-29T04:49:30.940Z,2.50
2017-12-29T04:51:58.411Z,2.70
2017-12-29T04:54:26.660Z,2.90
2017-12-29T04:56:54.128Z,2.83
2017-12-29T04:59:21.615Z,2.83
2017-12-29T05:01:49.863Z,2.93
2017-12-29T05:04:17.328Z,2.33
2017-12-29T05:06:45.575Z,2.90
2017-12-29T05:09:13.048Z,2.20
2017-12-29T05:11:40.542Z,2.00
2017-12-29T05:14:08.010Z,2.30
2017-12-29T05:16:35.475Z,2.30
2017-12-29T05:19:02.939Z,2.53
2017-12-29T05:21:30.456Z,2.00
2017-12-29T05:23:58.718Z,1.90
2017-12-29T05:26:26.198Z,1.70
2017-12-29T05:28:54.466Z,2.63
2017-12-29T05:31:22.681Z,2.47
2017-12-29T05:33:50.181Z,5.50
2017-12-29T05:36:17.652Z,3.70
2017-12-29T05:38:45.915Z,5.63
2017-12-29T05:41:14.157Z,3.63
2017-12-29T05:43:41.635Z,5.33
2017-12-29T05:46:09.127Z,2.60
2017-12-29T05:48:37.362Z,2.73
2017-12-29T05:51:05.391Z,2.83
2017-12-29T05:53:32.881Z,2.20
2017-12-29T05:56:00.354Z,2.93
2017-12-29T05:58:29.251Z,3.95
2017-12-29T06:00:57.155Z,3.70
2017-12-29T06:03:25.406Z,3.90
2017-12-29T06:05:52.879Z,3.20
2017-12-29T06:08:21.112Z,2.33
2017-12-29T06:10:48.593Z,3.60
2017-12-29T06:13:16.058Z,3.53
2017-12-29T06:15:43.583Z,2.00
2017-12-29T06:18:11.083Z,1.97
2017-12-29T06:20:39.320Z,1.70
2017-12-29T06:23:06.804Z,1.70
2017-12-29T06:25:34.266Z,2.00
2017-12-29T06:28:02.526Z,2.30
2017-12-29T06:30:29.992Z,1.60
2017-12-29T06:32:57.467Z,2.15
2017-12-29T06:35:25.702Z,1.80
2017-12-29T06:37:53.185Z,1.93
2017-12-29T06:40:20.672Z,1.90
2017-12-29T06:42:48.144Z,1.60
2017-12-29T06:45:15.610Z,1.80
2017-12-29T06:47:43.092Z,1.60
2017-12-29T06:50:10.696Z,1.80
2017-12-29T06:52:38.154Z,2.00
2017-12-29T06:55:06.408Z,2.00
2017-12-29T06:57:33.875Z,2.13
2017-12-29T07:00:02.129Z,1.83
2017-12-29T07:02:29.599Z,1.80
2017-12-29T07:05:14.005Z,2.55
2017-12-29T07:07:42.457Z,1.70
2017-12-29T07:10:10.715Z,1.77
2017-12-29T07:12:38.195Z,1.40
2017-12-29T07:15:06.469Z,1.85
2017-12-29T07:17:34.698Z,1.60
2017-12-29T07:20:02.192Z,1.57
2017-12-29T07:22:30.435Z,1.77
2017-12-29T07:24:59.122Z,1.80
2017-12-29T07:27:26.607Z,1.77
2017-12-29T07:29:54.092Z,1.70
2017-12-29T07:32:21.568Z,1.90
2017-12-29T07:34:49.079Z,2.87
2017-12-29T07:37:16.554Z,1.73
2017-12-29T07:39:44.807Z,1.90
2017-12-29T07:42:12.280Z,2.33
2017-12-29T07:44:40.544Z,2.10
2017-12-29T07:47:08.024Z,2.10
2017-12-29T07:49:36.282Z,2.90
2017-12-29T07:52:04.535Z,2.70
2017-12-29T07:54:32.047Z,2.23
2017-12-29T07:56:59.512Z,1.90
2017-12-29T07:59:26.989Z,2.33
2017-12-29T08:01:54.477Z,2.33
2017-12-29T08:04:21.941Z,2.70
2017-12-29T08:06:50.192Z,1.77
2017-12-29T08:09:18.488Z,1.70
2017-12-29T08:11:46.028Z,1.90
2017-12-29T08:14:13.507Z,2.27
2017-12-29T08:16:41.968Z,1.97
2017-12-29T08:19:09.435Z,1.50
2017-12-29T08:21:36.926Z,2.30
2017-12-29T08:24:05.177Z,2.93
2017-12-29T08:26:33.424Z,2.80
2017-12-29T08:31:55.089Z,3.37
2017-12-29T08:34:22.559Z,3.50
2017-12-29T08:36:50.816Z,3.72
2017-12-29T08:39:18.298Z,3.60
2017-12-29T08:41:45.823Z,3.20
2017-12-29T08:44:13.317Z,2.53
2017-12-29T08:46:41.572Z,3.10
2017-12-29T08:49:09.137Z,2.60
2017-12-29T08:51:37.395Z,2.80
2017-12-29T08:54:04.860Z,5.57
2017-12-29T08:56:32.347Z,3.43
2017-12-29T08:59:00.587Z,4.37
2017-12-29T09:01:28.069Z,3.70
2017-12-29T09:06:49.980Z,3.50
2017-12-29T09:09:17.458Z,3.50
2017-12-29T09:11:44.927Z,4.07
2017-12-29T09:14:12.387Z,3.07
2017-12-29T09:16:40.767Z,2.30
2017-12-29T09:19:09.036Z,2.37
2017-12-29T09:21:36.525Z,2.60
2017-12-29T09:24:03.983Z,2.33
2017-12-29T09:26:31.474Z,3.50
2017-12-29T09:28:59.019Z,3.60
2017-12-29T09:31:26.490Z,2.60
2017-12-29T09:33:53.973Z,2.60
2017-12-29T09:36:21.478Z,2.57
2017-12-29T09:38:49.521Z,2.47
2017-12-29T09:41:17.014Z,2.70
2017-12-29T09:43:44.490Z,2.90
2017-12-29T09:46:11.974Z,3.10
2017-12-29T09:48:39.441Z,3.60
2017-12-29T09:51:06.909Z,2.87
2017-12-29T09:53:34.386Z,2.90
2017-12-29T09:56:02.621Z,2.90
2017-12-29T09:58:30.101Z,2.93
2017-12-29T10:00:57.582Z,3.57
2017-12-29T10:03:25.056Z,3.77
2017-12-29T10:05:53.446Z,3.07
2017-12-29T10:08:20.937Z,2.83
2017-12-29T10:10:49.164Z,2.40
2017-12-29T10:13:17.418Z,2.93
2017-12-29T10:15:45.657Z,2.50
2017-12-29T10:18:13.128Z,2.97
2017-12-29T10:20:40.600Z,2.27
2017-12-29T10:23:08.899Z,2.57
2017-12-29T10:25:36.393Z,2.70
2017-12-29T10:28:03.880Z,2.50
2017-12-29T10:30:31.331Z,1.97
2017-12-29T10:32:58.820Z,2.47
2017-12-29T10:35:27.093Z,2.90
2017-12-29T10:37:54.544Z,2.57
2017-12-29T10:43:15.770Z,2.20
2017-12-29T10:45:43.261Z,3.63
2017-12-29T10:48:10.752Z,3.07
2017-12-29T10:50:38.224Z,3.00
2017-12-29T10:53:05.768Z,2.37
2017-12-29T10:55:33.227Z,2.47
2017-12-29T10:58:00.696Z,4.00
2017-12-29T11:00:28.267Z,2.90
2017-12-29T11:02:55.834Z,2.97
2017-12-29T11:05:24.640Z,2.93
2017-12-29T11:07:52.888Z,2.67
2017-12-29T11:10:20.356Z,2.93
2017-12-29T11:12:47.838Z,2.90
2017-12-29T11:15:15.307Z,2.77
2017-12-29T11:17:42.832Z,2.90
2017-12-29T11:20:10.303Z,2.47
2017-12-29T11:22:38.559Z,2.42
2017-12-29T11:25:06.856Z,2.73
2017-12-29T11:27:35.084Z,2.50
2017-12-29T11:30:02.577Z,2.30
2017-12-29T11:32:30.829Z,2.10
2017-12-29T11:34:58.304Z,2.77
2017-12-29T11:37:25.770Z,4.00
2017-12-29T11:39:54.007Z,2.67
2017-12-29T11:42:21.474Z,2.83
2017-12-29T11:44:48.980Z,2.50
2017-12-29T11:47:17.223Z,2.40
2017-12-29T11:49:44.695Z,2.17
2017-12-29T11:52:12.928Z,2.30
2017-12-29T11:54:40.407Z,3.00
2017-12-29T11:57:07.881Z,2.17
2017-12-29T11:59:36.119Z,2.70
2017-12-29T12:02:03.595Z,2.20
2017-12-29T12:04:31.087Z,2.53
2017-12-29T12:06:59.332Z,2.90
2017-12-29T12:09:26.892Z,2.00
2017-12-29T12:11:54.379Z,2.90
2017-12-29T12:14:22.631Z,2.43
2017-12-29T12:16:50.106Z,2.33
2017-12-29T12:19:18.358Z,2.70
2017-12-29T12:21:45.819Z,2.50
2017-12-29T12:24:14.816Z,2.80
2017-12-29T12:26:42.280Z,3.13
2017-12-29T12:29:09.752Z,2.23
2017-12-29T12:31:38.003Z,2.20
2017-12-29T12:34:05.572Z,2.30
2017-12-29T12:36:33.835Z,2.20
2017-12-29T12:39:02.799Z,1.95
2017-12-29T12:41:30.286Z,3.10
2017-12-29T12:43:57.742Z,2.27
2017-12-29T12:46:25.976Z,2.20
2017-12-29T12:48:53.449Z,2.20
2017-12-29T12:51:20.960Z,2.90
2017-12-29T12:53:49.193Z,5.33
2017-12-29T12:56:16.664Z,3.63
2017-12-29T12:58:44.908Z,3.40
2017-12-29T13:01:12.405Z,2.40
2017-12-29T13:03:39.864Z,2.43
2017-12-29T13:06:07.327Z,5.17
2017-12-29T13:08:34.823Z,3.60
2017-12-29T13:11:02.294Z,2.80
2017-12-29T13:13:29.760Z,3.03
2017-12-29T13:15:57.240Z,2.93
2017-12-29T13:18:24.718Z,3.10
2017-12-29T13:20:52.188Z,5.37
2017-12-29T13:23:20.424Z,3.63
2017-12-29T13:25:47.919Z,3.43
2017-12-29T13:28:16.146Z,4.63
2017-12-29T13:30:43.620Z,3.20
2017-12-29T13:33:11.128Z,4.73
2017-12-29T13:35:38.601Z,3.87
2017-12-29T13:38:06.116Z,3.10
2017-12-29T13:40:34.432Z,3.43
2017-12-29T13:43:01.898Z,3.00
2017-12-29T13:45:29.404Z,4.40
2017-12-29T13:47:56.863Z,3.53
2017-12-29T13:50:24.385Z,2.50
2017-12-29T13:52:51.865Z,2.50
2017-12-29T13:55:19.334Z,2.93
2017-12-29T13:57:46.826Z,3.33
2017-12-29T14:00:14.350Z,3.73
2017-12-29T14:02:41.827Z,3.30
2017-12-29T14:05:10.126Z,3.43
2017-12-29T14:07:37.620Z,3.90
2017-12-29T14:10:05.082Z,4.47
2017-12-29T14:12:32.559Z,4.30
2017-12-29T14:15:00.030Z,4.63
2017-12-29T14:17:29.204Z,3.87
2017-12-29T14:19:56.693Z,6.00
2017-12-29T14:22:24.932Z,6.67
2017-12-29T14:24:52.396Z,5.27
2017-12-29T14:27:19.904Z,3.00
2017-12-29T14:29:53.668Z,3.65
2017-12-29T14:32:21.236Z,3.00
2017-12-29T14:34:48.763Z,5.53
2017-12-29T14:37:16.257Z,4.60
2017-12-29T14:39:44.509Z,4.37
2017-12-29T14:42:11.974Z,4.33
2017-12-29T14:44:39.470Z,3.80
2017-12-29T14:47:06.952Z,2.97
2017-12-29T14:49:35.151Z,3.60
2017-12-29T14:52:02.627Z,3.40
2017-12-29T14:54:30.096Z,3.07
2017-12-29T14:56:58.343Z,3.23
2017-12-29T14:59:25.803Z,3.37
2017-12-29T15:01:53.288Z,3.55
2017-12-29T15:04:21.520Z,4.10
2017-12-29T15:06:49.077Z,3.90
2017-12-29T15:09:16.547Z,3.80
2017-12-29T15:11:44.071Z,3.80
2017-12-29T15:14:11.552Z,3.43
2017-12-29T15:16:39.081Z,4.03
2017-12-29T15:19:06.593Z,4.00
2017-12-29T15:21:34.105Z,4.07
2017-12-29T15:24:01.600Z,4.00
2017-12-29T15:26:29.105Z,5.23
2017-12-29T15:28:57.370Z,5.13
2017-12-29T15:31:25.642Z,4.07
2017-12-29T15:33:54.819Z,3.83
2017-12-29T15:36:22.290Z,4.63
2017-12-29T15:38:50.576Z,4.17
2017-12-29T15:41:18.815Z,5.57
2017-12-29T15:43:46.305Z,4.53
2017-12-29T15:46:14.540Z,4.50
2017-12-29T15:48:42.063Z,5.20
2017-12-29T15:51:10.361Z,3.92
2017-12-29T15:53:37.849Z,4.27
2017-12-29T15:56:06.877Z,3.83
2017-12-29T15:58:34.738Z,3.20
2017-12-29T16:01:04.600Z,4.60
2017-12-29T16:03:32.121Z,4.50
2017-12-29T16:06:00.389Z,3.57
2017-12-29T16:08:28.683Z,3.62
2017-12-29T16:10:56.178Z,3.87
2017-12-29T16:13:23.665Z,4.30
2017-12-29T16:15:51.921Z,4.60
2017-12-29T16:18:19.415Z,4.20
2017-12-29T16:20:47.689Z,5.23
2017-12-29T16:23:15.982Z,4.13
2017-12-29T16:25:43.514Z,4.40
2017-12-29T16:28:11.816Z,4.73
2017-12-29T16:30:39.329Z,4.40
2017-12-29T16:33:06.848Z,3.87
2017-12-29T16:35:34.354Z,7.33
2017-12-29T16:38:01.874Z,4.30
2017-12-29T16:40:29.445Z,3.50
2017-12-29T16:42:56.931Z,3.90
2017-12-29T16:45:24.458Z,4.73
2017-12-29T16:47:51.935Z,3.33
2017-12-29T16:50:19.952Z,4.40
2017-12-29T16:52:47.426Z,4.27
2017-12-29T16:55:14.953Z,4.00
2017-12-29T16:57:43.238Z,3.93
2017-12-29T17:00:11.546Z,4.23
2017-12-29T17:02:39.015Z,3.95
2017-12-29T17:05:07.334Z,4.30
2017-12-29T17:07:35.625Z,4.67
2017-12-29T17:10:03.941Z,3.50
2017-12-29T17:12:31.400Z,4.07
2017-12-29T17:14:58.896Z,4.10
2017-12-29T17:17:26.414Z,4.13
2017-12-29T17:20:04.334Z,3.40
2017-12-29T17:22:31.930Z,3.90
2017-12-29T17:25:00.206Z,5.20
2017-12-29T17:27:27.686Z,3.90
2017-12-29T17:29:55.923Z,4.50
2017-12-29T17:32:23.402Z,3.40
2017-12-29T17:34:51.654Z,3.65
2017-12-29T17:37:19.161Z,2.97
2017-12-29T17:39:46.645Z,3.30
2017-12-29T17:42:14.158Z,6.80
2017-12-29T17:44:44.101Z,3.60
2017-12-29T17:47:11.559Z,4.80
2017-12-29T17:49:39.030Z,4.67
2017-12-29T17:52:06.563Z,4.93
2017-12-29T17:54:34.082Z,3.30
2017-12-29T17:57:01.709Z,3.17
2017-12-29T17:59:29.918Z,3.50
2017-12-29T18:01:57.450Z,3.83
2017-12-29T18:04:24.956Z,3.20
2017-12-29T18:06:53.267Z,3.95
2017-12-29T18:09:20.744Z,4.80
2017-12-29T18:11:48.270Z,3.67
2017-12-29T18:14:15.742Z,4.00
2017-12-29T18:16:43.243Z,4.43
2017-12-29T18:19:10.698Z,3.87
2017-12-29T18:21:38.249Z,4.37
2017-12-29T18:24:06.524Z,4.60
2017-12-29T18:26:34.038Z,3.57
2017-12-29T18:29:01.562Z,3.60
2017-12-29T18:31:29.821Z,4.03
2017-12-29T18:33:57.287Z,4.20
2017-12-29T18:36:24.824Z,4.57
2017-12-29T18:38:52.341Z,4.95
2017-12-29T18:41:19.883Z,4.20
2017-12-29T18:43:48.119Z,5.40
2017-12-29T18:46:15.606Z,5.03
2017-12-29T18:48:43.861Z,4.23
2017-12-29T18:51:11.406Z,6.00
2017-12-29T18:53:38.868Z,5.37
2017-12-29T18:56:06.375Z,4.70
2017-12-29T18:58:34.668Z,3.80
2017-12-29T19:01:02.184Z,4.40
2017-12-29T19:03:30.563Z,3.90
2017-12-29T19:05:58.955Z,4.27
2017-12-29T19:08:27.254Z,5.23
2017-12-29T19:10:54.728Z,7.07
2017-12-29T19:13:22.269Z,5.97
2017-12-29T19:15:49.804Z,7.50
2017-12-29T19:18:17.329Z,5.13
2017-12-29T19:20:44.892Z,6.03
2017-12-29T19:23:12.433Z,7.00
2017-12-29T19:25:39.937Z,5.63
2017-12-29T19:28:07.408Z,4.53
2017-12-29T19:30:35.682Z,6.10
2017-12-29T19:33:03.974Z,5.87
2017-12-29T19:35:32.258Z,5.82
2017-12-29T19:37:59.782Z,5.00
2017-12-29T19:40:28.811Z,5.30
2017-12-29T19:42:56.346Z,6.40
2017-12-29T19:45:24.846Z,4.33
2017-12-29T19:47:52.424Z,4.20
2017-12-29T19:50:19.955Z,4.43
2017-12-29T19:52:48.251Z,4.53
2017-12-29T19:55:15.763Z,3.57
2017-12-29T19:57:47.282Z,4.03
2017-12-29T20:00:15.175Z,3.07
2017-12-29T20:02:42.768Z,3.00
2017-12-29T20:05:11.054Z,3.50
2017-12-29T20:07:39.346Z,3.40
2017-12-29T20:10:06.860Z,4.70
2017-12-29T20:12:35.159Z,4.47
2017-12-29T20:15:03.440Z,4.30
2017-12-29T20:17:31.727Z,3.93
2017-12-29T20:19:59.243Z,4.20
2017-12-29T20:22:26.750Z,4.03
2017-12-29T20:24:54.266Z,3.90
2017-12-29T20:27:21.775Z,4.53
2017-12-29T20:29:49.313Z,4.05
2017-12-29T20:32:17.583Z,4.20
2017-12-29T20:34:45.873Z,5.10
2017-12-29T20:37:13.387Z,4.90
2017-12-29T20:39:41.903Z,4.90
2017-12-29T20:42:10.305Z,4.30
2017-12-29T20:44:37.846Z,3.87
2017-12-29T20:47:05.358Z,4.13
2017-12-29T20:49:32.882Z,3.93
2017-12-29T20:52:00.393Z,3.80
2017-12-29T20:54:27.918Z,3.00
2017-12-29T20:56:55.462Z,3.20
2017-12-29T20:59:22.995Z,2.50
2017-12-29T21:01:52.197Z,2.50
2017-12-29T21:04:19.723Z,1.90
2017-12-29T21:06:47.260Z,1.73
2017-12-29T21:09:15.673Z,1.60
2017-12-29T21:11:43.946Z,1.40
2017-12-29T21:14:11.471Z,1.58
2017-12-29T21:16:38.987Z,1.63
2017-12-29T21:19:06.502Z,1.57
2017-12-29T21:21:35.519Z,1.40
2017-12-29T21:24:03.808Z,1.60
2017-12-29T21:26:32.087Z,1.50
2017-12-29T21:29:00.370Z,1.40
2017-12-29T21:31:27.910Z,1.50
2017-12-29T21:33:56.182Z,1.50
2017-12-29T21:36:25.997Z,1.60
2017-12-29T21:38:54.277Z,1.30
2017-12-29T21:41:22.590Z,1.10
2017-12-29T21:43:50.126Z,1.40
2017-12-29T21:46:18.424Z,1.30
2017-12-29T21:48:45.959Z,1.00
2017-12-29T21:51:14.245Z,1.53
2017-12-29T21:53:41.772Z,1.40
2017-12-29T21:56:10.018Z,1.27
2017-12-29T21:58:37.531Z,1.30
2017-12-29T22:01:05.080Z,1.47
2017-12-29T22:03:33.355Z,1.67
2017-12-29T22:06:01.668Z,1.47
2017-12-29T22:08:29.187Z,1.40
2017-12-29T22:10:57.482Z,1.50
2017-12-29T22:13:25.793Z,1.40
2017-12-29T22:15:53.359Z,1.10
2017-12-29T22:18:20.848Z,0.93
2017-12-29T22:20:48.458Z,1.00
2017-12-29T22:23:15.971Z,1.50
2017-12-29T22:25:43.543Z,1.43
2017-12-29T22:28:11.819Z,1.30
2017-12-29T22:30:40.124Z,1.95
2017-12-29T22:33:07.648Z,1.63
2017-12-29T22:35:35.953Z,1.20
2017-12-29T22:38:03.490Z,1.10
2017-12-29T22:40:31.765Z,1.40
2017-12-29T22:43:00.050Z,1.50
2017-12-29T22:45:28.339Z,1.53
2017-12-29T22:47:55.847Z,1.20
2017-12-29T22:50:23.384Z,1.20
2017-12-29T22:52:50.898Z,1.57
2017-12-29T22:55:19.179Z,1.10
2017-12-29T22:57:48.302Z,1.50
2017-12-29T23:00:17.543Z,1.40
2017-12-29T23:02:45.849Z,1.50
2017-12-29T23:05:14.132Z,1.77
2017-12-29T23:07:42.421Z,1.50
2017-12-29T23:10:10.720Z,1.30
2017-12-29T23:12:39.110Z,1.40
2017-12-29T23:15:06.650Z,1.67
2017-12-29T23:17:34.192Z,1.80
2017-12-29T23:20:01.739Z,1.60
2017-12-29T23:22:30.046Z,1.50
2017-12-29T23:24:57.567Z,2.47
2017-12-29T23:27:26.803Z,2.10
2017-12-29T23:29:54.310Z,1.80
2017-12-29T23:32:23.784Z,2.17
2017-12-29T23:34:51.307Z,2.10
2017-12-29T23:37:18.854Z,1.93
2017-12-29T23:39:47.155Z,2.30
2017-12-29T23:42:14.665Z,2.30
2017-12-29T23:44:42.209Z,3.07
2017-12-29T23:47:09.750Z,2.63
2017-12-29T23:49:37.267Z,2.30
2017-12-29T23:52:05.557Z,2.33
2017-12-29T23:54:33.072Z,2.00
2017-12-29T23:57:00.586Z,1.90
2017-12-29T23:59:28.055Z,1.60
